Time;durP1;ratioP1;P1;durP2;ratioP2;P2;SDS_P1;SDS_P2;PMS_P1;PMS_P2;Temp;Humidity;BMP_temperature;BMP_pressure;BME280_temperature;BME280_humidity;BME280_pressure;Samples;Min_cycle;Max_cycle;Signal;HPM_P1;HPM_P2
2024/02/17 00:00:31;;;;;;;27.48;12.75;;;;;;;;;;4989008;28;20281;-92
2024/02/17 00:03:36;;;;;;;24.50;12.75;;;;;;;;;;4996464;28;20247;-91
2024/02/17 00:06:44;;;;;;;28.92;13.10;;;;;;;;;;4979241;28;20265;-89
2024/02/17 00:09:51;;;;;;;29.92;13.60;;;;;;;;;;4984252;28;20565;-91
2024/02/17 00:12:56;;;;;;;30.58;13.20;;;;;;;;;;4981235;28;20225;-90
2024/02/17 00:16:02;;;;;;;27.52;13.43;;;;;;;;;;4984318;28;20198;-89
2024/02/17 00:19:07;;;;;;;32.75;14.18;;;;;;;;;;4975962;28;20274;-93
2024/02/17 00:22:21;;;;;;;31.10;13.60;;;;;;;;;;4969501;28;20206;-90
2024/02/17 00:25:30;;;;;;;28.35;12.85;;;;;;;;;;4984177;28;20210;-92
2024/02/17 00:28:36;;;;;;;28.40;13.35;;;;;;;;;;4979047;28;20217;-92
2024/02/17 00:31:41;;;;;;;26.83;13.10;;;;;;;;;;4976341;28;20290;-91
2024/02/17 00:34:46;;;;;;;30.13;12.85;;;;;;;;;;4979607;28;20281;-90
2024/02/17 00:37:52;;;;;;;30.63;13.98;;;;;;;;;;4982558;28;20290;-92
2024/02/17 00:41:01;;;;;;;28.83;12.63;;;;;;;;;;4982726;28;20209;-90
2024/02/17 00:44:07;;;;;;;28.02;13.40;;;;;;;;;;4983219;28;20210;-92
2024/02/17 00:47:13;;;;;;;32.13;13.13;;;;;;;;;;4982440;28;20229;-90
2024/02/17 00:50:18;;;;;;;28.15;13.02;;;;;;;;;;4937337;28;1215995;-96
2024/02/17 00:53:23;;;;;;;28.83;13.20;;;;;;;;;;4978328;28;20186;-93
2024/02/17 00:56:29;;;;;;;26.25;11.68;;;;;;;;;;4981252;28;20637;-91
2024/02/17 00:59:34;;;;;;;25.65;11.90;;;;;;;;;;4975765;28;20208;-93
2024/02/17 01:02:39;;;;;;;24.55;11.77;;;;;;;;;;4989174;28;20206;-92
2024/02/17 01:05:44;;;;;;;29.80;12.68;;;;;;;;;;4977493;28;20210;-91
2024/02/17 01:08:50;;;;;;;26.50;11.88;;;;;;;;;;4982421;28;20680;-93
2024/02/17 01:11:58;;;;;;;25.42;11.45;;;;;;;;;;4987866;28;20209;-91
2024/02/17 01:15:03;;;;;;;27.35;12.35;;;;;;;;;;4983408;28;20241;-92
2024/02/17 01:18:09;;;;;;;23.38;11.50;;;;;;;;;;4979258;28;20213;-94
2024/02/17 01:21:13;;;;;;;26.90;12.02;;;;;;;;;;4982991;28;20201;-91
2024/02/17 01:24:19;;;;;;;31.88;12.80;;;;;;;;;;4981660;28;20205;-90
2024/02/17 01:27:25;;;;;;;23.90;12.13;;;;;;;;;;4973389;28;20217;-90
2024/02/17 01:30:30;;;;;;;25.75;12.20;;;;;;;;;;4983769;28;20209;-93
2024/02/17 01:33:35;;;;;;;24.95;11.95;;;;;;;;;;4980157;28;20618;-92
2024/02/17 01:36:41;;;;;;;26.67;12.35;;;;;;;;;;4981724;28;20190;-91
2024/02/17 01:39:46;;;;;;;29.95;13.05;;;;;;;;;;4982460;28;20213;-92
2024/02/17 01:42:52;;;;;;;33.72;14.10;;;;;;;;;;4982288;28;20206;-90
2024/02/17 01:45:57;;;;;;;31.08;14.45;;;;;;;;;;4982189;28;20256;-89
2024/02/17 01:49:02;;;;;;;29.88;13.82;;;;;;;;;;4982663;28;20221;-93
2024/02/17 01:52:07;;;;;;;28.27;13.27;;;;;;;;;;4981959;28;20214;-89
2024/02/17 01:55:13;;;;;;;30.73;14.40;;;;;;;;;;4981988;28;20340;-90
2024/02/17 01:58:20;;;;;;;31.02;13.02;;;;;;;;;;4981522;28;20697;-92
2024/02/17 02:01:26;;;;;;;27.38;12.98;;;;;;;;;;4979186;28;20197;-90
2024/02/17 02:04:31;;;;;;;29.10;13.05;;;;;;;;;;4983790;28;20309;-93
2024/02/17 02:07:36;;;;;;;31.73;13.73;;;;;;;;;;4994043;28;20225;-90
2024/02/17 02:10:41;;;;;;;26.25;13.00;;;;;;;;;;4992017;28;20225;-92
2024/02/17 02:13:48;;;;;;;28.38;13.52;;;;;;;;;;4982356;28;20228;-91
2024/02/17 02:16:56;;;;;;;30.58;13.55;;;;;;;;;;4980255;28;20206;-91
2024/02/17 02:20:01;;;;;;;30.52;14.25;;;;;;;;;;4993845;28;20217;-91
2024/02/17 02:23:06;;;;;;;29.85;13.52;;;;;;;;;;4984346;28;20345;-90
2024/02/17 02:26:13;;;;;;;30.88;14.20;;;;;;;;;;4984554;28;20281;-91
2024/02/17 02:29:19;;;;;;;26.58;12.77;;;;;;;;;;4981743;28;20197;-92
2024/02/17 02:32:26;;;;;;;26.63;12.98;;;;;;;;;;4976138;28;20214;-91
2024/02/17 02:35:32;;;;;;;31.50;13.48;;;;;;;;;;4979036;28;20201;-92
2024/02/17 02:38:37;;;;;;;28.58;13.10;;;;;;;;;;4981027;28;20202;-90
2024/02/17 02:41:43;;;;;;;32.65;14.25;;;;;;;;;;4980772;28;20216;-94
2024/02/17 02:44:48;;;;;;;30.30;13.75;;;;;;;;;;4980976;28;20225;-93
2024/02/17 02:47:53;;;;;;;29.38;13.63;;;;;;;;;;4978011;28;22190;-92
2024/02/17 02:50:58;;;;;;;25.00;12.73;;;;;;;;;;4972962;28;20217;-92
2024/02/17 02:54:04;;;;;;;33.05;13.25;;;;;;;;;;4980203;28;20197;-90
2024/02/17 02:57:11;;;;;;;30.05;14.10;;;;;;;;;;4979677;28;20318;-91
2024/02/17 03:00:16;;;;;;;29.58;13.18;;;;;;;;;;4974830;28;20262;-93
2024/02/17 03:03:21;;;;;;;28.50;13.43;;;;;;;;;;4980811;28;20213;-92
2024/02/17 03:06:27;;;;;;;24.58;12.18;;;;;;;;;;4980079;28;20325;-90
2024/02/17 03:09:32;;;;;;;25.20;12.38;;;;;;;;;;4982398;28;20201;-90
2024/02/17 03:12:38;;;;;;;28.52;12.75;;;;;;;;;;4981547;28;20201;-92
2024/02/17 03:15:44;;;;;;;28.75;12.55;;;;;;;;;;4976012;28;20329;-90
2024/02/17 03:18:49;;;;;;;26.30;12.40;;;;;;;;;;4976621;28;20306;-89
2024/02/17 03:21:55;;;;;;;28.60;13.13;;;;;;;;;;4967823;28;20272;-92
2024/02/17 03:25:00;;;;;;;29.02;13.52;;;;;;;;;;4974647;28;20202;-90
2024/02/17 03:28:07;;;;;;;29.60;13.32;;;;;;;;;;4996066;28;20575;-92
2024/02/17 03:31:12;;;;;;;28.10;13.48;;;;;;;;;;4984832;28;20209;-89
2024/02/17 03:34:17;;;;;;;30.17;13.65;;;;;;;;;;4982521;28;20212;-90
2024/02/17 03:37:22;;;;;;;27.05;13.68;;;;;;;;;;4984956;28;20193;-92
2024/02/17 03:40:27;;;;;;;35.25;13.93;;;;;;;;;;4984914;28;20207;-91
2024/02/17 03:43:34;;;;;;;31.40;13.65;;;;;;;;;;4984284;28;20197;-90
2024/02/17 03:46:39;;;;;;;31.20;14.93;;;;;;;;;;4987318;28;20229;-89
2024/02/17 03:49:44;;;;;;;28.90;13.52;;;;;;;;;;4982667;28;20221;-91
2024/02/17 03:52:50;;;;;;;29.63;14.40;;;;;;;;;;4984396;28;20264;-91
2024/02/17 03:55:56;;;;;;;29.70;15.05;;;;;;;;;;4987107;28;20202;-91
2024/02/17 03:59:03;;;;;;;35.65;14.23;;;;;;;;;;4979554;28;20229;-90
2024/02/17 04:02:07;;;;;;;31.27;13.90;;;;;;;;;;4986382;28;20204;-92
2024/02/17 04:05:13;;;;;;;28.48;14.15;;;;;;;;;;4980843;28;20332;-90
2024/02/17 04:08:18;;;;;;;35.92;15.05;;;;;;;;;;4985038;28;20257;-91
2024/02/17 04:11:23;;;;;;;38.30;15.95;;;;;;;;;;4985706;28;20217;-94
2024/02/17 04:14:30;;;;;;;32.00;14.73;;;;;;;;;;4984765;28;20321;-93
2024/02/17 04:17:35;;;;;;;30.33;15.10;;;;;;;;;;4984257;28;20807;-92
2024/02/17 04:20:41;;;;;;;38.22;16.05;;;;;;;;;;4985492;28;20206;-91
2024/02/17 04:23:46;;;;;;;31.08;15.00;;;;;;;;;;4981765;28;20246;-91
2024/02/17 04:26:51;;;;;;;32.63;15.13;;;;;;;;;;4984601;28;20182;-90
2024/02/17 04:29:58;;;;;;;34.60;15.75;;;;;;;;;;4985447;28;20325;-90
2024/02/17 04:33:03;;;;;;;37.05;16.80;;;;;;;;;;4980865;28;20209;-92
2024/02/17 04:36:11;;;;;;;36.65;16.08;;;;;;;;;;4983390;28;20210;-91
2024/02/17 04:39:17;;;;;;;37.17;16.52;;;;;;;;;;4982927;28;20201;-91
2024/02/17 04:42:23;;;;;;;39.42;16.92;;;;;;;;;;4980770;28;20186;-93
2024/02/17 04:45:29;;;;;;;32.30;15.88;;;;;;;;;;4987832;28;20205;-91
2024/02/17 04:48:34;;;;;;;37.25;17.00;;;;;;;;;;4983618;28;20601;-92
2024/02/17 04:51:39;;;;;;;39.20;16.77;;;;;;;;;;4990138;28;20660;-93
2024/02/17 04:54:45;;;;;;;35.50;16.48;;;;;;;;;;4973212;28;20639;-92
2024/02/17 04:57:50;;;;;;;41.17;17.77;;;;;;;;;;4981783;28;20209;-89
2024/02/17 05:00:56;;;;;;;38.22;17.08;;;;;;;;;;4983244;28;20297;-91
2024/02/17 05:04:02;;;;;;;41.88;18.45;;;;;;;;;;4978506;28;20193;-90
2024/02/17 05:07:07;;;;;;;41.55;18.50;;;;;;;;;;4979944;28;20245;-91
2024/02/17 05:10:12;;;;;;;39.03;17.13;;;;;;;;;;4970649;28;20214;-91
2024/02/17 05:13:18;;;;;;;44.72;19.25;;;;;;;;;;4978243;28;20206;-91
2024/02/17 05:16:27;;;;;;;44.13;18.92;;;;;;;;;;4981630;28;20209;-90
2024/02/17 05:19:32;;;;;;;39.03;17.65;;;;;;;;;;4979956;28;20209;-90
2024/02/17 05:22:37;;;;;;;41.50;19.33;;;;;;;;;;4971719;28;20205;-92
2024/02/17 05:25:42;;;;;;;39.42;18.50;;;;;;;;;;4978651;28;20743;-91
2024/02/17 05:28:47;;;;;;;46.97;19.77;;;;;;;;;;4980343;28;20240;-90
2024/02/17 05:31:54;;;;;;;41.30;18.40;;;;;;;;;;4982789;28;20213;-91
2024/02/17 05:34:59;;;;;;;42.45;18.55;;;;;;;;;;4978517;28;20201;-91
2024/02/17 05:38:04;;;;;;;43.95;19.40;;;;;;;;;;4981385;28;20194;-90
2024/02/17 05:41:10;;;;;;;46.25;19.95;;;;;;;;;;4982972;28;20567;-93
2024/02/17 05:44:15;;;;;;;39.40;19.33;;;;;;;;;;4964082;29;20190;-92
2024/02/17 05:47:21;;;;;;;40.55;20.15;;;;;;;;;;4963162;28;20202;-89
2024/02/17 05:50:26;;;;;;;44.92;20.23;;;;;;;;;;4971923;28;20225;-90
2024/02/17 05:53:31;;;;;;;44.05;19.45;;;;;;;;;;4978700;28;20225;-91
2024/02/17 05:56:37;;;;;;;38.80;19.30;;;;;;;;;;4982312;28;20337;-90
2024/02/17 05:59:42;;;;;;;44.67;20.08;;;;;;;;;;4978043;28;20202;-88
2024/02/17 06:02:48;;;;;;;46.03;20.17;;;;;;;;;;4982417;28;20274;-90
2024/02/17 06:05:54;;;;;;;44.45;19.42;;;;;;;;;;4974724;28;20230;-91
2024/02/17 06:08:59;;;;;;;40.47;20.35;;;;;;;;;;4981490;28;20229;-91
2024/02/17 06:12:04;;;;;;;41.40;18.67;;;;;;;;;;4981336;28;20317;-92
2024/02/17 06:15:09;;;;;;;48.45;20.80;;;;;;;;;;4981847;28;20399;-94
2024/02/17 06:21:39;;;;;;;47.70;20.33;;;;;;;;;;4973089;28;20210;-92
2024/02/17 06:24:44;;;;;;;45.83;21.05;;;;;;;;;;4983331;28;20205;-88
2024/02/17 06:27:50;;;;;;;44.55;20.67;;;;;;;;;;4978364;28;20245;-90
2024/02/17 06:30:55;;;;;;;49.90;21.10;;;;;;;;;;4973944;28;20190;-91
2024/02/17 06:34:02;;;;;;;45.72;20.90;;;;;;;;;;4984513;28;20217;-90
2024/02/17 06:37:07;;;;;;;48.08;21.23;;;;;;;;;;4983207;28;20244;-90
2024/02/17 06:40:12;;;;;;;45.25;20.85;;;;;;;;;;4974953;28;20202;-91
2024/02/17 06:43:17;;;;;;;46.50;21.30;;;;;;;;;;4979428;28;20268;-92
2024/02/17 06:46:23;;;;;;;41.47;19.38;;;;;;;;;;4984280;28;20200;-91
2024/02/17 06:49:30;;;;;;;42.33;20.02;;;;;;;;;;4966641;28;20225;-92
2024/02/17 06:52:35;;;;;;;44.72;20.75;;;;;;;;;;4980639;28;20210;-92
2024/02/17 06:55:40;;;;;;;43.72;21.55;;;;;;;;;;4989427;28;20198;-92
2024/02/17 06:58:45;;;;;;;45.28;21.52;;;;;;;;;;4969947;28;20247;-91
2024/02/17 07:01:51;;;;;;;52.63;21.80;;;;;;;;;;4973924;28;20285;-90
2024/02/17 07:04:57;;;;;;;44.25;20.42;;;;;;;;;;4984335;28;20242;-91
2024/02/17 07:08:04;;;;;;;49.28;22.23;;;;;;;;;;4989172;28;20395;-91
2024/02/17 07:11:09;;;;;;;47.10;22.17;;;;;;;;;;4987705;28;20217;-90
2024/02/17 07:14:14;;;;;;;50.05;23.05;;;;;;;;;;4969016;28;20327;-89
2024/02/17 07:17:19;;;;;;;46.85;21.70;;;;;;;;;;4985426;28;20208;-92
2024/02/17 07:20:26;;;;;;;47.85;21.88;;;;;;;;;;4986256;28;20229;-92
2024/02/17 07:23:32;;;;;;;46.05;22.17;;;;;;;;;;4988354;28;20266;-91
2024/02/17 07:26:42;;;;;;;52.60;23.08;;;;;;;;;;4987734;28;20209;-92
2024/02/17 07:29:47;;;;;;;55.35;24.77;;;;;;;;;;4987614;28;20642;-91
2024/02/17 07:32:52;;;;;;;59.75;26.13;;;;;;;;;;4976169;28;20281;-93
2024/02/17 07:35:59;;;;;;;51.80;23.00;;;;;;;;;;4979780;28;20226;-91
2024/02/17 07:39:05;;;;;;;53.67;25.73;;;;;;;;;;4987850;28;20185;-93
2024/02/17 07:42:10;;;;;;;50.03;23.45;;;;;;;;;;4985453;28;20202;-93
2024/02/17 07:45:16;;;;;;;50.13;22.30;;;;;;;;;;4980116;28;20201;-90
2024/02/17 07:48:21;;;;;;;46.97;22.42;;;;;;;;;;4988329;28;20522;-91
2024/02/17 07:51:28;;;;;;;48.38;22.95;;;;;;;;;;4984505;28;20229;-93
2024/02/17 07:54:33;;;;;;;49.60;23.33;;;;;;;;;;4975866;28;20198;-93
2024/02/17 07:57:39;;;;;;;50.55;23.83;;;;;;;;;;4985843;28;20221;-91
2024/02/17 08:00:44;;;;;;;52.28;23.90;;;;;;;;;;4986081;28;20206;-91
2024/02/17 08:03:49;;;;;;;51.65;24.38;;;;;;;;;;4983463;28;20212;-91
2024/02/17 08:06:56;;;;;;;51.60;24.08;;;;;;;;;;4984916;28;20260;-91
2024/02/17 08:10:01;;;;;;;46.83;21.77;;;;;;;;;;4980235;28;20249;-90
2024/02/17 08:13:06;;;;;;;45.45;22.75;;;;;;;;;;4982161;28;20213;-93
2024/02/17 08:16:11;;;;;;;46.90;22.13;;;;;;;;;;4985287;28;20205;-91
2024/02/17 08:19:16;;;;;;;49.88;22.88;;;;;;;;;;4986052;28;20256;-90
2024/02/17 08:22:23;;;;;;;47.78;24.25;;;;;;;;;;4995142;28;20195;-93
2024/02/17 08:25:28;;;;;;;46.30;23.33;;;;;;;;;;4984848;28;20213;-91
2024/02/17 08:28:33;;;;;;;45.28;23.35;;;;;;;;;;4985441;28;20225;-91
2024/02/17 08:31:38;;;;;;;50.40;23.77;;;;;;;;;;4999762;28;20209;-92
2024/02/17 08:34:45;;;;;;;55.85;25.85;;;;;;;;;;5007384;28;20233;-94
2024/02/17 08:37:52;;;;;;;54.28;24.58;;;;;;;;;;4982168;28;20208;-92
2024/02/17 08:40:57;;;;;;;55.20;25.88;;;;;;;;;;4965227;28;20665;-90
2024/02/17 08:44:02;;;;;;;59.78;25.95;;;;;;;;;;4966530;28;20178;-90
2024/02/17 08:47:08;;;;;;;58.03;27.05;;;;;;;;;;4967910;28;20723;-93
2024/02/17 08:50:13;;;;;;;201.18;30.88;;;;;;;;;;4974399;28;20249;-90
2024/02/17 08:53:20;;;;;;;60.05;25.88;;;;;;;;;;4997783;28;20313;-89
2024/02/17 08:56:25;;;;;;;59.22;26.73;;;;;;;;;;4977975;28;20611;-91
2024/02/17 08:59:31;;;;;;;57.58;25.40;;;;;;;;;;4983635;28;20213;-89
2024/02/17 09:02:36;;;;;;;57.63;27.15;;;;;;;;;;4985342;28;20213;-91
2024/02/17 09:05:44;;;;;;;56.95;26.55;;;;;;;;;;4986571;28;20230;-90
2024/02/17 09:08:50;;;;;;;52.47;25.73;;;;;;;;;;4984772;28;20262;-91
2024/02/17 09:11:56;;;;;;;54.05;25.85;;;;;;;;;;4984837;28;20216;-92
2024/02/17 09:15:01;;;;;;;52.45;26.20;;;;;;;;;;4984137;28;20325;-93
2024/02/17 09:18:08;;;;;;;46.45;23.05;;;;;;;;;;4987401;28;20276;-91
2024/02/17 09:21:12;;;;;;;49.00;23.60;;;;;;;;;;4986848;28;20186;-90
2024/02/17 09:24:21;;;;;;;57.13;25.65;;;;;;;;;;4983659;28;20221;-91
2024/02/17 09:27:27;;;;;;;55.22;26.50;;;;;;;;;;4985231;28;20225;-90
2024/02/17 09:30:34;;;;;;;49.83;25.35;;;;;;;;;;4985734;28;20225;-90
2024/02/17 09:33:41;;;;;;;52.70;25.00;;;;;;;;;;4984524;28;20193;-90
2024/02/17 09:36:47;;;;;;;52.25;25.25;;;;;;;;;;4985468;28;20535;-91
2024/02/17 09:39:54;;;;;;;46.60;24.50;;;;;;;;;;4985063;28;20290;-90
2024/02/17 09:42:59;;;;;;;51.03;24.33;;;;;;;;;;4984779;28;20273;-91
2024/02/17 09:46:04;;;;;;;52.35;22.45;;;;;;;;;;4982337;28;20205;-90
2024/02/17 09:49:09;;;;;;;47.17;23.33;;;;;;;;;;4964327;29;20210;-91
2024/02/17 09:52:17;;;;;;;46.90;24.75;;;;;;;;;;4962897;29;20190;-90
2024/02/17 09:55:25;;;;;;;47.65;24.98;;;;;;;;;;4964048;29;20258;-92
2024/02/17 09:58:30;;;;;;;49.83;24.40;;;;;;;;;;4966271;28;20218;-91
2024/02/17 10:01:36;;;;;;;57.55;28.45;;;;;;;;;;4976267;28;20217;-91
2024/02/17 10:04:53;;;;;;;52.50;26.30;;;;;;;;;;4988749;28;20201;-92
2024/02/17 10:07:58;;;;;;;53.03;26.92;;;;;;;;;;4989806;28;20210;-92
2024/02/17 10:11:06;;;;;;;50.20;24.38;;;;;;;;;;4991940;28;20225;-92
2024/02/17 10:14:12;;;;;;;48.50;24.80;;;;;;;;;;4985321;28;20202;-92
2024/02/17 10:17:18;;;;;;;50.85;24.92;;;;;;;;;;4985641;28;20338;-92
2024/02/17 10:20:24;;;;;;;51.10;24.30;;;;;;;;;;4988962;28;20279;-93
2024/02/17 10:23:30;;;;;;;116.00;58.13;;;;;;;;;;4969081;29;20198;-91
2024/02/17 10:26:37;;;;;;;50.97;24.77;;;;;;;;;;4985107;28;20675;-90
2024/02/17 10:29:42;;;;;;;47.88;23.70;;;;;;;;;;5006180;28;20344;-91
2024/02/17 10:32:52;;;;;;;44.22;23.17;;;;;;;;;;4986697;28;20257;-91
2024/02/17 10:36:00;;;;;;;44.38;23.30;;;;;;;;;;4991218;28;20193;-91
2024/02/17 10:39:08;;;;;;;53.47;26.27;;;;;;;;;;4994144;28;20190;-94
2024/02/17 10:42:14;;;;;;;49.58;25.10;;;;;;;;;;4992637;28;20189;-93
2024/02/17 10:45:20;;;;;;;43.25;22.30;;;;;;;;;;4989819;28;20269;-91
2024/02/17 10:48:27;;;;;;;41.55;22.27;;;;;;;;;;4991391;28;20286;-93
2024/02/17 10:51:32;;;;;;;46.47;23.73;;;;;;;;;;4990818;28;20193;-93
2024/02/17 10:54:41;;;;;;;44.45;25.20;;;;;;;;;;4991824;28;20197;-90
2024/02/17 10:57:58;;;;;;;48.95;24.55;;;;;;;;;;4993621;28;20189;-91
2024/02/17 11:01:04;;;;;;;46.28;24.27;;;;;;;;;;4991559;28;20329;-89
2024/02/17 11:04:10;;;;;;;49.60;25.98;;;;;;;;;;4992853;28;20648;-91
2024/02/17 11:07:16;;;;;;;48.58;24.65;;;;;;;;;;4990519;28;20229;-94
2024/02/17 11:10:29;;;;;;;41.00;21.70;;;;;;;;;;4990574;28;20225;-93
2024/02/17 11:13:36;;;;;;;44.35;24.15;;;;;;;;;;4975356;28;20203;-91
2024/02/17 11:16:50;;;;;;;42.47;22.58;;;;;;;;;;4991393;28;20747;-90
2024/02/17 11:43:29;;;;;;;27.23;15.73;;;;;;;;;;5259811;23;20225;-92
2024/02/17 11:46:36;;;;;;;32.22;17.35;;;;;;;;;;4986772;28;20206;-93
2024/02/17 11:49:43;;;;;;;31.48;17.17;;;;;;;;;;4987592;28;20206;-92
2024/02/17 11:52:49;;;;;;;27.92;14.05;;;;;;;;;;4987708;28;20568;-93
2024/02/17 11:56:03;;;;;;;23.45;13.07;;;;;;;;;;4987003;28;20309;-90
2024/02/17 11:59:16;;;;;;;23.42;12.32;;;;;;;;;;4979484;28;20202;-92
2024/02/17 12:02:21;;;;;;;20.02;10.27;;;;;;;;;;4985772;28;20221;-92
2024/02/17 12:05:26;;;;;;;16.00;8.77;;;;;;;;;;4989476;28;20307;-93
2024/02/17 12:08:32;;;;;;;17.08;9.77;;;;;;;;;;4988715;28;20217;-91
2024/02/17 12:11:40;;;;;;;17.23;8.25;;;;;;;;;;4975303;28;20213;-93
2024/02/17 12:14:49;;;;;;;13.45;7.43;;;;;;;;;;4988660;28;20205;-89
2024/02/17 12:17:54;;;;;;;9.85;6.03;;;;;;;;;;4986744;28;20193;-91
2024/02/17 12:21:01;;;;;;;14.57;6.90;;;;;;;;;;4988168;28;20214;-94
2024/02/17 12:24:09;;;;;;;8.95;5.07;;;;;;;;;;4989925;28;20206;-91
2024/02/17 12:27:15;;;;;;;10.07;4.85;;;;;;;;;;4986022;28;20194;-91
2024/02/17 12:30:24;;;;;;;12.73;4.07;;;;;;;;;;4974010;28;20323;-90
2024/02/17 12:33:29;;;;;;;15.45;4.80;;;;;;;;;;4973427;28;20202;-90
2024/02/17 12:36:35;;;;;;;9.10;3.55;;;;;;;;;;4971658;29;20194;-90
2024/02/17 12:39:40;;;;;;;5.45;2.97;;;;;;;;;;4986284;28;20204;-91
2024/02/17 12:42:46;;;;;;;6.65;2.50;;;;;;;;;;4989221;28;20209;-91
2024/02/17 12:45:53;;;;;;;3.42;1.98;;;;;;;;;;4986983;28;20182;-92
2024/02/17 12:48:58;;;;;;;4.63;1.58;;;;;;;;;;4979537;28;20217;-90
2024/02/17 12:52:07;;;;;;;2.58;1.70;;;;;;;;;;4988182;28;20302;-93
2024/02/17 12:55:13;;;;;;;2.45;1.20;;;;;;;;;;4991092;28;20197;-92
2024/02/17 12:58:18;;;;;;;2.92;1.45;;;;;;;;;;4989008;28;20196;-91
2024/02/17 13:01:39;;;;;;;6.55;1.63;;;;;;;;;;4988721;28;20173;-92
2024/02/17 13:04:47;;;;;;;5.82;1.77;;;;;;;;;;4991536;28;20193;-91
2024/02/17 13:07:52;;;;;;;2.00;1.20;;;;;;;;;;4990343;28;20213;-92
2024/02/17 13:10:59;;;;;;;2.15;1.20;;;;;;;;;;4987027;28;20225;-92
2024/02/17 13:14:04;;;;;;;1.88;1.27;;;;;;;;;;4987005;28;20304;-91
2024/02/17 13:17:12;;;;;;;2.90;1.30;;;;;;;;;;4988831;28;20186;-92
2024/02/17 13:20:19;;;;;;;1.70;1.27;;;;;;;;;;4988095;28;20283;-94
2024/02/17 13:23:25;;;;;;;6.00;0.93;;;;;;;;;;4969955;28;20202;-93
2024/02/17 13:26:31;;;;;;;5.97;1.50;;;;;;;;;;4989045;28;20197;-92
2024/02/17 13:29:38;;;;;;;4.20;1.20;;;;;;;;;;4987822;28;20190;-92
2024/02/17 13:32:45;;;;;;;1.65;0.98;;;;;;;;;;4991262;28;20195;-95
2024/02/17 13:35:52;;;;;;;1.67;1.20;;;;;;;;;;4988299;28;20209;-90
2024/02/17 13:38:57;;;;;;;4.93;1.98;;;;;;;;;;4987306;28;20185;-92
2024/02/17 13:42:02;;;;;;;1.48;0.70;;;;;;;;;;4967394;28;20253;-92
2024/02/17 13:45:09;;;;;;;1.83;1.02;;;;;;;;;;4970426;28;20596;-90
2024/02/17 13:48:16;;;;;;;2.65;1.10;;;;;;;;;;4988323;28;20190;-92
2024/02/17 13:51:25;;;;;;;2.72;1.30;;;;;;;;;;4988093;28;20280;-90
2024/02/17 13:54:31;;;;;;;16.45;1.60;;;;;;;;;;4972051;28;20570;-91
2024/02/17 13:57:36;;;;;;;65.93;3.20;;;;;;;;;;4967613;28;20197;-92
2024/02/17 14:00:42;;;;;;;9.38;1.70;;;;;;;;;;4978690;28;20194;-91
2024/02/17 14:03:48;;;;;;;19.77;1.92;;;;;;;;;;4980706;28;20251;-91
2024/02/17 14:06:55;;;;;;;31.23;2.63;;;;;;;;;;4978704;28;20190;-90
2024/02/17 14:10:01;;;;;;;4.18;1.10;;;;;;;;;;4978795;28;20218;-92
2024/02/17 14:13:10;;;;;;;10.80;1.85;;;;;;;;;;4981385;28;20191;-92
2024/02/17 14:16:16;;;;;;;15.57;1.42;;;;;;;;;;4981673;28;20201;-92
2024/02/17 14:19:21;;;;;;;8.98;1.80;;;;;;;;;;4981203;28;20207;-92
2024/02/17 14:22:28;;;;;;;4.00;1.50;;;;;;;;;;4980931;28;20207;-92
2024/02/17 14:25:36;;;;;;;30.10;2.40;;;;;;;;;;4979561;28;20191;-92
2024/02/17 14:28:43;;;;;;;9.52;2.40;;;;;;;;;;4979631;28;20186;-92
2024/02/17 14:31:48;;;;;;;6.50;2.03;;;;;;;;;;4982554;28;20270;-91
2024/02/17 14:34:54;;;;;;;4.22;1.40;;;;;;;;;;4982540;28;20195;-90
2024/02/17 14:38:01;;;;;;;7.80;2.33;;;;;;;;;;4993639;28;20209;-91
2024/02/17 14:41:07;;;;;;;3.20;1.40;;;;;;;;;;4988247;28;20657;-90
2024/02/17 14:44:13;;;;;;;6.28;2.10;;;;;;;;;;4991374;28;20198;-90
2024/02/17 14:47:18;;;;;;;6.55;1.98;;;;;;;;;;4990870;28;20197;-92
2024/02/17 14:50:24;;;;;;;5.60;1.95;;;;;;;;;;4987087;28;20228;-90
2024/02/17 14:53:35;;;;;;;3.00;1.92;;;;;;;;;;4988897;28;20294;-91
2024/02/17 14:56:40;;;;;;;18.85;1.92;;;;;;;;;;4987107;28;20194;-91
2024/02/17 14:59:49;;;;;;;11.75;4.25;;;;;;;;;;4991195;28;20193;-91
2024/02/17 15:02:55;;;;;;;11.00;2.92;;;;;;;;;;4987869;28;20193;-89
2024/02/17 15:06:03;;;;;;;5.95;2.80;;;;;;;;;;4988738;28;20194;-92
2024/02/17 15:09:10;;;;;;;3.65;2.20;;;;;;;;;;4987897;28;20190;-92
2024/02/17 15:12:15;;;;;;;8.60;2.58;;;;;;;;;;4987586;28;20217;-91
2024/02/17 15:15:26;;;;;;;4.05;1.80;;;;;;;;;;4987312;28;20206;-92
2024/02/17 15:18:33;;;;;;;5.07;2.33;;;;;;;;;;4989813;28;20169;-91
2024/02/17 15:21:39;;;;;;;6.35;2.42;;;;;;;;;;4991201;28;20202;-90
2024/02/17 15:24:46;;;;;;;6.25;2.38;;;;;;;;;;4992569;28;20185;-92
2024/02/17 15:27:52;;;;;;;7.25;2.72;;;;;;;;;;4989008;28;20215;-92
2024/02/17 15:30:57;;;;;;;6.72;2.60;;;;;;;;;;4992818;28;20225;-91
2024/02/17 15:34:03;;;;;;;6.85;2.80;;;;;;;;;;4992700;28;20206;-89
2024/02/17 15:37:12;;;;;;;5.80;2.25;;;;;;;;;;4990147;28;20260;-92
2024/02/17 15:40:21;;;;;;;6.97;2.63;;;;;;;;;;4992817;28;20194;-92
2024/02/17 15:43:27;;;;;;;10.07;3.97;;;;;;;;;;4994648;28;20214;-91
2024/02/17 15:46:32;;;;;;;8.40;3.75;;;;;;;;;;4992345;28;20193;-89
2024/02/17 15:49:40;;;;;;;11.05;4.32;;;;;;;;;;4994073;28;20189;-89
2024/02/17 15:52:48;;;;;;;8.18;3.50;;;;;;;;;;4995619;28;20190;-91
2024/02/17 15:56:04;;;;;;;11.93;4.57;;;;;;;;;;4995655;28;20313;-92
2024/02/17 15:59:11;;;;;;;9.30;4.07;;;;;;;;;;4995473;28;20222;-91
2024/02/17 16:02:18;;;;;;;5.63;2.97;;;;;;;;;;4993740;28;20201;-91
2024/02/17 16:05:24;;;;;;;10.02;4.68;;;;;;;;;;4991364;28;20202;-90
2024/02/17 16:08:30;;;;;;;7.43;3.40;;;;;;;;;;4988972;28;20174;-89
2024/02/17 16:11:37;;;;;;;10.95;4.38;;;;;;;;;;4989488;28;20233;-91
2024/02/17 16:14:42;;;;;;;13.25;6.13;;;;;;;;;;4989391;28;20189;-92
2024/02/17 16:17:49;;;;;;;8.82;4.35;;;;;;;;;;4987771;28;20190;-90
2024/02/17 16:20:55;;;;;;;15.05;7.05;;;;;;;;;;4989116;28;20245;-90
2024/02/17 16:24:02;;;;;;;10.57;5.30;;;;;;;;;;4989247;28;20198;-91
2024/02/17 16:27:09;;;;;;;13.68;4.50;;;;;;;;;;4988680;28;20182;-93
2024/02/17 16:30:14;;;;;;;7.75;3.53;;;;;;;;;;4988537;28;20197;-92
2024/02/17 16:33:20;;;;;;;11.27;4.90;;;;;;;;;;4989750;28;20555;-92
2024/02/17 16:36:25;;;;;;;7.60;3.72;;;;;;;;;;4986651;28;20213;-91
2024/02/17 16:39:31;;;;;;;10.45;3.90;;;;;;;;;;4988402;28;20234;-90
2024/02/17 16:42:38;;;;;;;8.57;4.43;;;;;;;;;;4990339;28;20217;-90
2024/02/17 16:45:47;;;;;;;11.27;5.45;;;;;;;;;;4988693;28;20202;-93
2024/02/17 16:48:53;;;;;;;18.40;6.75;;;;;;;;;;4988267;28;20229;-92
2024/02/17 16:51:58;;;;;;;16.80;6.13;;;;;;;;;;4988024;28;20218;-92
2024/02/17 16:55:05;;;;;;;8.52;4.95;;;;;;;;;;4990390;28;20170;-91
2024/02/17 16:58:13;;;;;;;10.77;5.70;;;;;;;;;;4988606;28;20201;-90
2024/02/17 17:04:38;;;;;;;12.73;5.90;;;;;;;;;;4987581;28;20238;-90
2024/02/17 17:07:44;;;;;;;17.83;7.65;;;;;;;;;;4983746;28;20186;-90
2024/02/17 17:10:49;;;;;;;17.92;5.10;;;;;;;;;;4970146;28;20266;-91
2024/02/17 17:13:56;;;;;;;8.77;4.20;;;;;;;;;;4969791;29;20194;-90
2024/02/17 17:17:02;;;;;;;8.63;4.40;;;;;;;;;;4982795;28;20202;-91
2024/02/17 17:20:08;;;;;;;12.77;5.55;;;;;;;;;;4989781;28;20237;-92
2024/02/17 17:23:14;;;;;;;12.55;6.18;;;;;;;;;;4986729;28;20248;-91
2024/02/17 17:26:19;;;;;;;12.38;5.43;;;;;;;;;;4986931;28;20202;-91
2024/02/17 17:29:25;;;;;;;28.88;13.88;;;;;;;;;;4986022;28;20237;-89
2024/02/17 17:32:33;;;;;;;16.25;7.65;;;;;;;;;;4984977;28;20237;-89
2024/02/17 17:35:38;;;;;;;18.33;8.05;;;;;;;;;;4986429;28;20194;-90
2024/02/17 17:38:43;;;;;;;13.00;5.85;;;;;;;;;;4984839;28;20221;-91
2024/02/17 17:41:48;;;;;;;11.93;4.47;;;;;;;;;;4982645;28;20201;-91
2024/02/17 17:44:56;;;;;;;11.15;5.10;;;;;;;;;;4982832;28;20194;-92
2024/02/17 17:48:02;;;;;;;8.88;4.03;;;;;;;;;;4983594;28;20318;-91
2024/02/17 17:51:07;;;;;;;8.02;4.18;;;;;;;;;;4986166;28;20212;-92
2024/02/17 17:54:13;;;;;;;12.00;4.85;;;;;;;;;;4989102;28;20182;-91
2024/02/17 17:57:19;;;;;;;9.40;5.50;;;;;;;;;;4983962;28;20209;-92
2024/02/17 18:00:27;;;;;;;9.98;4.75;;;;;;;;;;4966893;28;20187;-90
2024/02/17 18:03:32;;;;;;;9.65;4.35;;;;;;;;;;4966610;28;20194;-93
2024/02/17 18:06:39;;;;;;;10.73;5.32;;;;;;;;;;4968775;28;20239;-91
2024/02/17 18:09:44;;;;;;;13.82;5.90;;;;;;;;;;4967421;28;20275;-91
2024/02/17 18:12:49;;;;;;;11.07;6.22;;;;;;;;;;4981654;28;20244;-93
2024/02/17 18:15:56;;;;;;;15.63;7.00;;;;;;;;;;4985946;28;20197;-92
2024/02/17 18:19:02;;;;;;;10.15;5.75;;;;;;;;;;4985068;28;20225;-92
2024/02/17 18:22:08;;;;;;;11.50;5.63;;;;;;;;;;4986212;28;20217;-92
2024/02/17 18:25:13;;;;;;;13.48;6.25;;;;;;;;;;4984531;28;20233;-93
2024/02/17 18:28:19;;;;;;;12.05;4.95;;;;;;;;;;4969829;28;20201;-92
2024/02/17 18:31:26;;;;;;;8.82;4.60;;;;;;;;;;4965775;28;20279;-91
2024/02/17 18:34:31;;;;;;;11.77;4.65;;;;;;;;;;4983795;28;20272;-91
2024/02/17 18:37:36;;;;;;;9.60;4.90;;;;;;;;;;4980448;28;20245;-93
2024/02/17 18:40:41;;;;;;;10.20;5.80;;;;;;;;;;4984251;28;20270;-91